Cliffside Park, New Jersey
Current Conditions -  °F | °C
As of 2:51 AM on Saturday 25 Oct 2014 (Local Time) from KNYC Reporting Station
Clear Clear  
Wind Chill: 54°   Ceiling: Unl
Heat Index: 54°   Visibility: 10mi
Dew Point: 36°   Wind: 8mph
Humidity: 51%   Direction: 300°WNW
Pressure: 29.89"   Gusts: NA
Location:  40.82°N, 73.99°W
Report Text: KNYC 250651Z AUTO 30007KT 10SM CLR 12/02 A2989 RMK AO2 SLP111 T01220022 $
Loading
Personal Weather Stations






























Interactive Weather Map
Tropical Storm Tracking
New forecast layout! Learn more

10-Day Weather Forecast

Advertisements
Track Severe Weather on mobile